createdAt,value
2016-03-27T00:00:04.761Z,0
2016-03-27T00:01:04.783Z,0
2016-03-27T00:02:04.769Z,0
2016-03-27T00:03:04.788Z,0
2016-03-27T00:04:04.775Z,0
2016-03-27T00:05:04.794Z,0
2016-03-27T00:06:04.765Z,0
2016-03-27T00:07:04.783Z,0
2016-03-27T00:08:04.755Z,0
2016-03-27T00:09:04.774Z,0
2016-03-27T00:10:04.760Z,0
2016-03-27T00:11:04.747Z,0
2016-03-27T00:12:04.782Z,0
2016-03-27T00:13:04.752Z,0
2016-03-27T00:14:04.787Z,0
2016-03-27T00:15:04.757Z,0
2016-03-27T00:16:04.807Z,0
2016-03-27T00:17:04.778Z,0
2016-03-27T00:18:04.776Z,0
2016-03-27T00:19:04.748Z,0
2016-03-27T00:20:04.736Z,0
2016-03-27T00:21:04.708Z,0
2016-03-27T00:22:04.649Z,0
2016-03-27T00:23:04.655Z,0
2016-03-27T00:24:04.652Z,0
2016-03-27T00:25:04.666Z,0
2016-03-27T00:26:04.632Z,0
2016-03-27T00:27:04.660Z,0
2016-03-27T00:28:04.643Z,0
2016-03-27T00:29:04.628Z,0
2016-03-27T00:30:04.644Z,0
2016-03-27T00:31:04.629Z,0
2016-03-27T00:32:04.630Z,0
2016-03-27T00:33:04.614Z,0
2016-03-27T00:34:04.632Z,0
2016-03-27T00:35:04.618Z,0
2016-03-27T00:36:04.605Z,0
2016-03-27T00:37:04.606Z,0
2016-03-27T00:38:04.609Z,0
2016-03-27T00:39:04.612Z,0
2016-03-27T00:40:04.630Z,0
2016-03-27T00:41:04.585Z,0
2016-03-27T00:42:04.588Z,0
2016-03-27T00:43:04.622Z,0
2016-03-27T00:44:04.594Z,0
2016-03-27T00:45:07.612Z,0
2016-03-27T00:46:04.614Z,0
2016-03-27T00:47:04.601Z,0
2016-03-27T00:48:04.620Z,0
2016-03-27T00:49:04.607Z,0
2016-03-27T00:50:04.625Z,0
2016-03-27T00:51:04.612Z,0
2016-03-27T00:52:04.631Z,0
2016-03-27T00:53:04.587Z,0
2016-03-27T00:54:04.589Z,0
2016-03-27T00:55:04.591Z,0
2016-03-27T00:56:04.595Z,0
2016-03-27T00:57:04.581Z,0
2016-03-27T00:58:04.600Z,0
2016-03-27T00:59:04.572Z,0
2016-03-27T01:00:04.605Z,0
2016-03-27T01:01:04.608Z,0
2016-03-27T01:02:04.564Z,0
2016-03-27T01:03:04.582Z,0
2016-03-27T01:04:04.585Z,0
2016-03-27T01:05:04.603Z,0
2016-03-27T01:06:04.559Z,0
2016-03-27T01:07:04.438Z,0
2016-03-27T01:08:04.584Z,0
2016-03-27T01:09:04.570Z,0
2016-03-27T01:10:04.589Z,0
2016-03-27T01:11:04.576Z,0
2016-03-27T01:12:04.766Z,0
2016-03-27T01:13:04.567Z,0
2016-03-27T01:14:04.569Z,0
2016-03-27T01:15:04.571Z,0
2016-03-27T01:16:04.575Z,0
2016-03-27T01:17:04.577Z,0
2016-03-27T01:18:04.563Z,0
2016-03-27T01:19:04.567Z,0
2016-03-27T01:20:04.585Z,0
2016-03-27T01:21:04.588Z,0
2016-03-27T01:22:04.560Z,0
2016-03-27T01:23:05.593Z,0
2016-03-27T01:24:05.111Z,0
2016-03-27T01:25:04.536Z,0
2016-03-27T01:26:04.570Z,0
2016-03-27T01:27:04.837Z,0
2016-03-27T01:28:04.560Z,0
2016-03-27T01:29:04.562Z,0
2016-03-27T01:30:04.565Z,0
2016-03-27T01:31:04.537Z,0
2016-03-27T01:32:04.570Z,0
2016-03-27T01:33:04.557Z,0
2016-03-27T01:34:04.560Z,0
2016-03-27T01:35:04.562Z,0
2016-03-27T01:36:04.534Z,0
2016-03-27T01:37:04.537Z,0
2016-03-27T01:38:04.523Z,0
2016-03-27T01:39:04.542Z,0
2016-03-27T01:40:04.514Z,0
2016-03-27T01:41:04.532Z,0
2016-03-27T01:42:04.520Z,0
2016-03-27T01:43:04.350Z,0
2016-03-27T01:44:04.524Z,0
2016-03-27T01:45:04.542Z,0
2016-03-27T01:46:04.514Z,0
2016-03-27T01:47:04.548Z,0
2016-03-27T01:48:04.363Z,0
2016-03-27T01:49:04.507Z,0
2016-03-27T01:50:04.541Z,0
2016-03-27T01:51:04.513Z,0
2016-03-27T01:52:04.515Z,0
2016-03-27T01:53:04.502Z,0
2016-03-27T01:54:04.505Z,0
2016-03-27T01:55:04.507Z,0
2016-03-27T01:56:04.510Z,0
2016-03-27T01:57:04.513Z,0
2016-03-27T01:58:04.531Z,0
2016-03-27T01:59:04.487Z,0
2016-03-27T02:00:04.521Z,0
2016-03-27T02:01:04.492Z,0
2016-03-27T02:02:04.620Z,0
2016-03-27T02:03:04.498Z,0
2016-03-27T02:04:04.468Z,0
2016-03-27T02:05:04.472Z,0
2016-03-27T02:06:04.474Z,0
2016-03-27T02:07:04.545Z,0
2016-03-27T02:08:04.473Z,0
2016-03-27T02:09:04.475Z,0
2016-03-27T02:10:04.609Z,0
2016-03-27T02:11:04.568Z,0
2016-03-27T02:12:04.478Z,0
2016-03-27T02:13:04.480Z,0
2016-03-27T02:14:04.484Z,0
2016-03-27T02:15:04.454Z,0
2016-03-27T02:16:07.456Z,0
2016-03-27T02:17:04.506Z,0
2016-03-27T02:18:04.462Z,0
2016-03-27T02:19:04.434Z,0
2016-03-27T02:20:07.453Z,0
2016-03-27T02:21:04.470Z,0
2016-03-27T02:22:04.458Z,0
2016-03-27T02:23:04.430Z,0
2016-03-27T02:24:04.447Z,0
2016-03-27T02:25:04.418Z,0
2016-03-27T02:26:04.265Z,0
2016-03-27T02:27:04.424Z,0
2016-03-27T02:28:04.427Z,0
2016-03-27T02:29:04.446Z,0
2016-03-27T02:30:04.416Z,0
2016-03-27T02:31:04.419Z,0
2016-03-27T02:32:04.188Z,0
2016-03-27T02:33:04.409Z,0
2016-03-27T02:34:04.396Z,0
2016-03-27T02:35:04.414Z,0
2016-03-27T02:36:04.433Z,0
2016-03-27T02:37:04.404Z,0
2016-03-27T02:38:04.391Z,0
2016-03-27T02:39:04.410Z,0
2016-03-27T02:40:04.396Z,0
2016-03-27T02:41:04.399Z,0
2016-03-27T02:42:04.387Z,0
2016-03-27T02:43:04.436Z,0
2016-03-27T02:44:04.407Z,0
2016-03-27T02:45:04.409Z,0
2016-03-27T02:46:04.397Z,0
2016-03-27T02:47:04.884Z,0
2016-03-27T02:48:04.606Z,0
2016-03-27T02:49:04.389Z,0
2016-03-27T02:50:04.377Z,0
2016-03-27T02:51:04.380Z,0
2016-03-27T02:52:04.366Z,0
2016-03-27T02:53:04.385Z,0
2016-03-27T02:54:04.403Z,0
2016-03-27T02:55:04.358Z,0
2016-03-27T02:56:04.361Z,0
2016-03-27T02:57:04.380Z,0
2016-03-27T02:58:04.366Z,0
2016-03-27T02:59:04.386Z,0
2016-03-27T03:00:04.388Z,0
2016-03-27T03:01:04.374Z,0
2016-03-27T03:02:04.613Z,0
2016-03-27T03:03:04.333Z,0
2016-03-27T03:04:04.336Z,0
2016-03-27T03:05:04.324Z,0
2016-03-27T03:06:04.326Z,0
2016-03-27T03:07:04.344Z,0
2016-03-27T03:08:04.316Z,0
2016-03-27T03:09:04.334Z,0
2016-03-27T03:10:04.351Z,0
2016-03-27T03:11:04.340Z,0
2016-03-27T03:12:04.295Z,0
2016-03-27T03:13:04.298Z,0
2016-03-27T03:14:04.332Z,0
2016-03-27T03:15:04.319Z,0
2016-03-27T03:16:04.290Z,0
2016-03-27T03:17:04.356Z,0
2016-03-27T03:18:04.311Z,0
2016-03-27T03:19:04.283Z,0
2016-03-27T03:20:04.301Z,0
2016-03-27T03:21:04.303Z,0
2016-03-27T03:22:04.276Z,0
2016-03-27T03:23:04.278Z,0
2016-03-27T03:24:04.280Z,0
2016-03-27T03:25:04.300Z,0
2016-03-27T03:26:04.302Z,0
2016-03-27T03:27:04.289Z,0
2016-03-27T03:28:04.150Z,0
2016-03-27T03:29:04.278Z,0
2016-03-27T03:30:04.249Z,0
2016-03-27T03:31:04.253Z,0
2016-03-27T03:32:04.333Z,0
2016-03-27T03:33:04.117Z,0
2016-03-27T03:34:04.246Z,0
2016-03-27T03:35:04.248Z,0
2016-03-27T03:36:04.250Z,0
2016-03-27T03:37:04.238Z,0
2016-03-27T03:38:04.240Z,0
2016-03-27T03:39:04.259Z,0
2016-03-27T03:40:04.262Z,0
2016-03-27T03:41:04.248Z,0
2016-03-27T03:42:04.251Z,0
2016-03-27T03:43:04.238Z,0
2016-03-27T03:44:04.225Z,0
2016-03-27T03:45:04.243Z,0
2016-03-27T03:46:04.215Z,0
2016-03-27T03:47:04.217Z,0
2016-03-27T03:48:04.220Z,0
2016-03-27T03:49:04.239Z,0
2016-03-27T03:50:04.225Z,0
2016-03-27T03:51:04.228Z,0
2016-03-27T03:52:04.231Z,0
2016-03-27T03:53:04.186Z,0
2016-03-27T03:54:04.220Z,0
2016-03-27T03:55:04.208Z,0
2016-03-27T03:56:04.194Z,0
2016-03-27T03:57:04.198Z,0
2016-03-27T03:58:04.185Z,0
2016-03-27T03:59:04.188Z,0
2016-03-27T04:00:04.174Z,0
2016-03-27T04:01:04.177Z,0
2016-03-27T04:02:04.180Z,0
2016-03-27T04:03:04.166Z,0
2016-03-27T04:04:04.185Z,0
2016-03-27T04:05:04.188Z,0
2016-03-27T04:06:04.191Z,0
2016-03-27T04:07:04.146Z,0
2016-03-27T04:08:04.198Z,0
2016-03-27T04:09:04.184Z,0
2016-03-27T04:10:04.156Z,0
2016-03-27T04:11:04.175Z,0
2016-03-27T04:12:04.177Z,0
2016-03-27T04:13:04.133Z,0
2016-03-27T04:14:04.448Z,0
2016-03-27T04:15:04.139Z,0
2016-03-27T04:16:04.141Z,0
2016-03-27T04:17:04.175Z,0
2016-03-27T04:18:04.178Z,0
2016-03-27T04:19:04.150Z,0
2016-03-27T04:20:04.136Z,0
2016-03-27T04:21:04.123Z,0
2016-03-27T04:22:04.127Z,0
2016-03-27T04:23:04.160Z,0
2016-03-27T04:24:04.147Z,0
2016-03-27T04:25:04.119Z,0
2016-03-27T04:26:04.105Z,0
2016-03-27T04:27:04.108Z,0
2016-03-27T04:28:04.096Z,0
2016-03-27T04:29:04.098Z,0
2016-03-27T04:30:04.100Z,0
2016-03-27T04:31:04.104Z,0
2016-03-27T04:32:04.106Z,0
2016-03-27T04:33:04.093Z,0
2016-03-27T04:34:04.112Z,0
2016-03-27T04:35:03.911Z,0
2016-03-27T04:36:04.320Z,0
2016-03-27T04:37:04.088Z,4
2016-03-27T04:38:04.091Z,4
2016-03-27T04:39:04.078Z,4
2016-03-27T04:40:04.081Z,0
2016-03-27T04:41:04.083Z,0
2016-03-27T04:42:04.056Z,4
2016-03-27T04:43:04.089Z,4
2016-03-27T04:44:04.091Z,0
2016-03-27T04:45:04.063Z,4
2016-03-27T04:46:04.034Z,4
2016-03-27T04:47:04.053Z,4
2016-03-27T04:48:04.071Z,4
2016-03-27T04:49:04.058Z,4
2016-03-27T04:50:04.045Z,8
2016-03-27T04:51:04.047Z,8
2016-03-27T04:52:04.066Z,8
2016-03-27T04:53:04.069Z,8
2016-03-27T04:54:04.071Z,12
2016-03-27T04:55:04.058Z,16
2016-03-27T04:56:04.077Z,16
2016-03-27T04:57:04.032Z,20
2016-03-27T04:58:04.019Z,24
2016-03-27T04:59:04.038Z,28
2016-03-27T05:00:04.009Z,32
2016-03-27T05:01:04.043Z,40
2016-03-27T05:02:04.030Z,44
2016-03-27T05:03:04.001Z,56
2016-03-27T05:04:04.020Z,60
2016-03-27T05:05:04.038Z,68
2016-03-27T05:06:04.009Z,76
2016-03-27T05:07:04.029Z,84
2016-03-27T05:08:04.015Z,92
2016-03-27T05:09:04.018Z,108
2016-03-27T05:10:04.006Z,124
2016-03-27T05:11:04.008Z,136
2016-03-27T05:12:03.995Z,152
2016-03-27T05:13:04.013Z,172
2016-03-27T05:14:04.000Z,188
2016-03-27T05:15:03.971Z,204
2016-03-27T05:16:03.975Z,220
2016-03-27T05:17:03.977Z,236
2016-03-27T05:18:04.277Z,252
2016-03-27T05:19:03.967Z,264
2016-03-27T05:20:04.000Z,280
2016-03-27T05:21:04.003Z,304
2016-03-27T05:22:03.991Z,332
2016-03-27T05:23:03.977Z,356
2016-03-27T05:24:03.980Z,376
2016-03-27T05:25:03.967Z,400
2016-03-27T05:26:03.969Z,424
2016-03-27T05:27:03.973Z,460
2016-03-27T05:28:03.960Z,492
2016-03-27T05:29:03.946Z,528
2016-03-27T05:30:03.966Z,572
2016-03-27T05:31:03.968Z,608
2016-03-27T05:32:03.954Z,644
2016-03-27T05:33:03.942Z,688
2016-03-27T05:34:03.976Z,724
2016-03-27T05:35:03.948Z,760
2016-03-27T05:36:03.951Z,800
2016-03-27T05:37:03.968Z,852
2016-03-27T05:38:03.970Z,904
2016-03-27T05:39:06.787Z,968
2016-03-27T05:40:03.961Z,1020
2016-03-27T05:41:03.963Z,1072
2016-03-27T05:42:03.904Z,1116
2016-03-27T05:43:03.937Z,1164
2016-03-27T05:44:03.925Z,1216
2016-03-27T05:45:03.928Z,1280
2016-03-27T05:46:03.914Z,1336
2016-03-27T05:47:03.933Z,1376
2016-03-27T05:48:03.919Z,1412
2016-03-27T05:49:03.953Z,1448
2016-03-27T05:50:03.925Z,1472
2016-03-27T05:51:03.944Z,1492
2016-03-27T05:52:04.118Z,1516
2016-03-27T05:53:03.965Z,1548
2016-03-27T05:54:03.936Z,1580
2016-03-27T05:55:03.938Z,1620
2016-03-27T05:56:03.910Z,1676
2016-03-27T05:57:03.913Z,1724
2016-03-27T05:58:03.899Z,1772
2016-03-27T05:59:03.902Z,1820
2016-03-27T06:00:03.921Z,1852
2016-03-27T06:01:03.907Z,1884
2016-03-27T06:02:03.911Z,1932
2016-03-27T06:03:03.898Z,1980
2016-03-27T06:04:03.868Z,2004
2016-03-27T06:05:03.888Z,2024
2016-03-27T06:06:03.921Z,2056
2016-03-27T06:07:03.876Z,2052
2016-03-27T06:08:03.896Z,2124
2016-03-27T06:09:03.914Z,2156
2016-03-27T06:10:03.901Z,2320
2016-03-27T06:11:03.888Z,2392
2016-03-27T06:12:03.922Z,2468
2016-03-27T06:13:03.893Z,2440
2016-03-27T06:14:03.896Z,2124
2016-03-27T06:15:03.914Z,1956
2016-03-27T06:16:03.869Z,1880
2016-03-27T06:17:03.889Z,1868
2016-03-27T06:18:03.891Z,1860
2016-03-27T06:19:03.894Z,1848
2016-03-27T06:20:03.912Z,1796
2016-03-27T06:21:03.883Z,1744
2016-03-27T06:22:03.902Z,1676
2016-03-27T06:23:03.905Z,1600
2016-03-27T06:24:03.891Z,1460
2016-03-27T06:25:03.910Z,1364
2016-03-27T06:26:03.897Z,1316
2016-03-27T06:27:03.727Z,1328
2016-03-27T06:28:03.903Z,1356
2016-03-27T06:29:03.905Z,1392
2016-03-27T06:30:03.860Z,1436
2016-03-27T06:31:03.864Z,1484
2016-03-27T06:32:03.866Z,1544
2016-03-27T06:33:03.884Z,1628
2016-03-27T06:34:03.888Z,1684
2016-03-27T06:35:03.890Z,1732
2016-03-27T06:36:03.893Z,1892
2016-03-27T06:37:04.098Z,2084
2016-03-27T06:38:03.882Z,2252
2016-03-27T06:39:07.213Z,2352
2016-03-27T06:40:03.887Z,2424
2016-03-27T06:41:03.875Z,2516
2016-03-27T06:42:03.893Z,2664
2016-03-27T06:43:03.911Z,2844
2016-03-27T06:44:03.868Z,3004
2016-03-27T06:45:03.886Z,3124
2016-03-27T06:46:03.889Z,3148
2016-03-27T06:47:03.891Z,3116
2016-03-27T06:48:03.925Z,3172
2016-03-27T06:49:03.881Z,3316
2016-03-27T06:50:03.884Z,3376
2016-03-27T06:51:03.902Z,3300
2016-03-27T06:52:03.889Z,3240
2016-03-27T06:53:03.953Z,3328
2016-03-27T06:54:03.894Z,3356
2016-03-27T06:55:03.865Z,3756
2016-03-27T06:56:03.869Z,4020
2016-03-27T06:57:03.886Z,3624
2016-03-27T06:58:03.873Z,2732
2016-03-27T06:59:03.861Z,2340
2016-03-27T07:00:03.894Z,1932
2016-03-27T07:01:03.913Z,1760
2016-03-27T07:02:03.853Z,1752
2016-03-27T07:03:03.855Z,1936
2016-03-27T07:04:03.749Z,1896
2016-03-27T07:05:04.221Z,1932
2016-03-27T07:06:03.738Z,2016
2016-03-27T07:07:04.210Z,2152
2016-03-27T07:08:03.885Z,2216
2016-03-27T07:09:03.904Z,2320
2016-03-27T07:10:03.890Z,2428
2016-03-27T07:11:03.892Z,2484
2016-03-27T07:12:03.880Z,2484
2016-03-27T07:13:03.882Z,2456
2016-03-27T07:14:03.884Z,2332
2016-03-27T07:15:03.920Z,2212
2016-03-27T07:16:03.875Z,2200
2016-03-27T07:17:03.878Z,2260
2016-03-27T07:18:03.881Z,2236
2016-03-27T07:19:03.883Z,2084
2016-03-27T07:20:03.917Z,1920
2016-03-27T07:21:03.873Z,1832
2016-03-27T07:22:03.922Z,1852
2016-03-27T07:23:03.909Z,1912
2016-03-27T07:24:06.897Z,1884
2016-03-27T07:25:03.900Z,1776
2016-03-27T07:26:03.933Z,1616
2016-03-27T07:27:03.889Z,1460
2016-03-27T07:28:03.877Z,1324
2016-03-27T07:29:03.911Z,1220
2016-03-27T07:30:03.896Z,1164
2016-03-27T07:31:03.900Z,1152
2016-03-27T07:32:03.887Z,1128
2016-03-27T07:33:03.890Z,1104
2016-03-27T07:34:03.924Z,1060
2016-03-27T07:35:03.941Z,1012
2016-03-27T07:36:04.116Z,984
2016-03-27T07:37:03.901Z,972
2016-03-27T07:38:04.184Z,976
2016-03-27T07:39:03.890Z,972
2016-03-27T07:40:03.893Z,964
2016-03-27T07:41:03.895Z,956
2016-03-27T07:42:03.930Z,984
2016-03-27T07:43:03.901Z,1076
2016-03-27T07:44:03.903Z,1224
2016-03-27T07:45:03.907Z,1440
2016-03-27T07:46:03.753Z,1668
2016-03-27T07:47:03.895Z,1844
2016-03-27T07:48:03.930Z,1980
2016-03-27T07:49:03.933Z,1988
2016-03-27T07:50:03.920Z,1924
2016-03-27T07:51:03.891Z,1832
2016-03-27T07:52:03.941Z,1760
2016-03-27T07:53:03.928Z,1748
2016-03-27T07:54:03.930Z,1820
2016-03-27T07:55:04.011Z,1980
2016-03-27T07:56:04.014Z,2140
2016-03-27T07:57:03.907Z,2212
2016-03-27T07:58:04.208Z,2172
2016-03-27T07:59:03.913Z,2084
2016-03-27T08:00:03.915Z,2056
2016-03-27T08:01:03.919Z,2076
2016-03-27T08:02:03.936Z,2132
2016-03-27T08:03:04.063Z,2260
2016-03-27T08:04:03.926Z,2360
2016-03-27T08:05:03.897Z,2476
2016-03-27T08:06:03.946Z,2600
2016-03-27T08:07:03.935Z,2748
2016-03-27T08:08:03.937Z,2868
2016-03-27T08:09:03.954Z,2940
2016-03-27T08:10:03.943Z,3036
2016-03-27T08:11:03.913Z,3128
2016-03-27T08:12:03.915Z,3272
2016-03-27T08:13:03.919Z,3360
2016-03-27T08:14:03.937Z,3372
2016-03-27T08:15:03.940Z,3356
2016-03-27T08:16:03.959Z,3368
2016-03-27T08:17:03.961Z,3368
2016-03-27T08:18:04.042Z,3356
2016-03-27T08:19:03.951Z,3388
2016-03-27T08:20:03.937Z,3512
2016-03-27T08:21:03.940Z,3620
2016-03-27T08:22:03.928Z,3704
2016-03-27T08:23:03.931Z,3760
2016-03-27T08:24:03.933Z,3528
2016-03-27T08:25:03.920Z,3224
2016-03-27T08:26:03.953Z,2932
2016-03-27T08:27:03.941Z,2672
2016-03-27T08:28:03.944Z,2440
2016-03-27T08:29:03.961Z,2188
2016-03-27T08:30:03.980Z,1992
2016-03-27T08:31:03.921Z,1808
2016-03-27T08:32:03.939Z,1736
2016-03-27T08:33:04.004Z,1672
2016-03-27T08:34:03.944Z,1648
2016-03-27T08:35:03.994Z,1752
2016-03-27T08:36:03.949Z,1676
2016-03-27T08:37:03.983Z,1828
2016-03-27T08:38:04.002Z,1872
2016-03-27T08:39:04.020Z,1928
2016-03-27T08:40:04.008Z,2212
2016-03-27T08:41:03.979Z,2600
2016-03-27T08:42:03.965Z,2924
2016-03-27T08:43:03.984Z,3120
2016-03-27T08:44:03.987Z,3212
2016-03-27T08:45:03.958Z,3060
2016-03-27T08:46:04.007Z,2824
2016-03-27T08:47:03.948Z,2832
2016-03-27T08:48:04.044Z,2864
2016-03-27T08:49:04.001Z,3060
2016-03-27T08:50:03.987Z,3264
2016-03-27T08:51:03.958Z,3152
2016-03-27T08:52:03.853Z,3088
2016-03-27T08:53:04.026Z,2792
2016-03-27T08:54:03.966Z,2396
2016-03-27T08:55:03.986Z,2124
2016-03-27T08:56:03.988Z,2080
2016-03-27T08:57:04.022Z,2224
2016-03-27T08:58:04.025Z,2280
2016-03-27T08:59:03.980Z,2260
2016-03-27T09:00:04.155Z,2328
2016-03-27T09:01:03.985Z,2352
2016-03-27T09:02:04.004Z,2372
2016-03-27T09:03:04.350Z,2380
2016-03-27T09:04:03.977Z,2400
2016-03-27T09:05:03.997Z,2432
2016-03-27T09:06:04.015Z,2472
2016-03-27T09:07:03.705Z,2492
2016-03-27T09:08:04.002Z,2488
2016-03-27T09:09:04.021Z,2464
2016-03-27T09:10:04.008Z,2456
2016-03-27T09:11:04.026Z,2496
2016-03-27T09:12:04.044Z,2616
2016-03-27T09:13:04.032Z,2828
2016-03-27T09:14:04.035Z,2984
2016-03-27T09:15:04.037Z,3088
2016-03-27T09:16:04.024Z,3164
2016-03-27T09:17:04.027Z,3100
2016-03-27T09:18:04.123Z,2916
2016-03-27T09:19:04.016Z,3048
2016-03-27T09:20:04.035Z,3060
2016-03-27T09:21:04.021Z,3072
2016-03-27T09:22:04.025Z,3188
2016-03-27T09:23:04.027Z,3120
2016-03-27T09:24:04.025Z,3108
2016-03-27T09:25:04.063Z,3204
2016-03-27T09:26:04.069Z,3236
2016-03-27T09:27:04.029Z,3400
2016-03-27T09:28:04.020Z,3576
2016-03-27T09:29:03.998Z,3720
2016-03-27T09:30:03.997Z,3816
2016-03-27T09:31:03.979Z,3876
2016-03-27T09:32:03.977Z,3804
2016-03-27T09:33:04.054Z,3660
2016-03-27T09:34:04.007Z,3552
2016-03-27T09:35:03.976Z,3624
2016-03-27T09:36:03.993Z,4084
2016-03-27T09:37:03.995Z,4728
2016-03-27T09:38:03.980Z,5448
2016-03-27T09:39:04.014Z,5948
2016-03-27T09:40:03.984Z,6300
2016-03-27T09:41:04.002Z,6644
2016-03-27T09:42:03.974Z,6908
2016-03-27T09:43:03.990Z,6952
2016-03-27T09:44:04.008Z,6852
2016-03-27T09:45:03.995Z,6620
2016-03-27T09:46:03.982Z,6300
2016-03-27T09:47:04.000Z,6108
2016-03-27T09:48:04.174Z,5936
2016-03-27T09:49:04.036Z,5764
2016-03-27T09:50:04.023Z,5524
2016-03-27T09:51:04.026Z,5236
2016-03-27T09:52:04.029Z,4912
2016-03-27T09:53:04.000Z,4600
2016-03-27T09:54:04.018Z,4360
2016-03-27T09:55:04.036Z,4124
2016-03-27T09:56:04.040Z,3960
2016-03-27T09:57:04.026Z,3884
2016-03-27T09:58:04.013Z,3840
2016-03-27T09:59:04.048Z,3708
2016-03-27T10:00:04.034Z,3504
2016-03-27T10:01:04.052Z,3368
2016-03-27T10:02:04.025Z,3356
2016-03-27T10:03:04.074Z,3396
2016-03-27T10:04:04.061Z,3468
2016-03-27T10:05:04.064Z,3584
2016-03-27T10:06:04.050Z,3724
2016-03-27T10:07:04.038Z,3852
2016-03-27T10:08:04.056Z,4032
2016-03-27T10:09:04.074Z,4200
2016-03-27T10:10:04.061Z,4580
2016-03-27T10:11:04.127Z,5056
2016-03-27T10:12:04.129Z,5328
2016-03-27T10:13:04.085Z,5288
2016-03-27T10:14:04.088Z,5296
2016-03-27T10:15:04.121Z,5432
2016-03-27T10:16:04.093Z,5580
2016-03-27T10:17:04.080Z,5748
2016-03-27T10:18:04.098Z,5776
2016-03-27T10:19:04.101Z,5700
2016-03-27T10:20:04.104Z,5664
2016-03-27T10:21:04.090Z,5780
2016-03-27T10:22:04.110Z,6064
2016-03-27T10:23:04.081Z,6556
2016-03-27T10:24:04.145Z,7016
2016-03-27T10:25:04.118Z,7296
2016-03-27T10:26:04.120Z,7464
2016-03-27T10:27:04.325Z,7472
2016-03-27T10:28:04.142Z,7356
2016-03-27T10:29:04.144Z,7196
2016-03-27T10:30:04.131Z,7092
2016-03-27T10:31:04.149Z,6912
2016-03-27T10:32:04.105Z,6592
2016-03-27T10:33:04.138Z,6084
2016-03-27T10:34:04.142Z,6004
2016-03-27T10:35:04.160Z,6260
2016-03-27T10:36:04.130Z,6360
2016-03-27T10:37:04.150Z,6524
2016-03-27T10:38:04.152Z,6800
2016-03-27T10:39:04.171Z,7208
2016-03-27T10:40:04.174Z,7460
2016-03-27T10:41:04.191Z,7292
2016-03-27T10:42:04.007Z,6844
2016-03-27T10:43:07.166Z,6360
2016-03-27T10:44:04.184Z,6316
2016-03-27T10:45:04.015Z,6736
2016-03-27T10:46:04.205Z,7240
2016-03-27T10:47:04.224Z,7536
2016-03-27T10:48:04.180Z,7912
2016-03-27T10:49:04.182Z,8300
2016-03-27T10:50:04.184Z,8804
2016-03-27T10:51:04.187Z,9260
2016-03-27T10:52:04.206Z,9428
2016-03-27T10:53:04.192Z,9452
2016-03-27T10:54:04.179Z,9412
2016-03-27T10:55:04.198Z,9364
2016-03-27T10:56:04.217Z,8916
2016-03-27T10:57:04.203Z,8400
2016-03-27T10:58:04.253Z,8360
2016-03-27T10:59:04.209Z,8556
2016-03-27T11:00:04.195Z,8856
2016-03-27T11:01:04.230Z,9220
2016-03-27T11:02:04.233Z,9504
2016-03-27T11:03:04.235Z,9620
2016-03-27T11:04:04.239Z,9580
2016-03-27T11:05:04.272Z,9400
2016-03-27T11:06:04.258Z,9260
2016-03-27T11:07:04.262Z,9240
2016-03-27T11:08:04.280Z,9364
2016-03-27T11:09:04.297Z,9532
2016-03-27T11:10:04.254Z,9752
2016-03-27T11:11:04.288Z,10016
2016-03-27T11:12:04.322Z,10140
2016-03-27T11:13:04.277Z,10080
2016-03-27T11:14:04.280Z,9968
2016-03-27T11:15:04.283Z,9904
2016-03-27T11:16:04.316Z,9732
2016-03-27T11:17:04.288Z,9436
2016-03-27T11:18:04.291Z,9088
2016-03-27T11:19:04.309Z,8824
2016-03-27T11:20:04.313Z,8792
2016-03-27T11:21:04.330Z,8984
2016-03-27T11:22:04.317Z,9392
2016-03-27T11:23:04.336Z,10064
2016-03-27T11:24:04.338Z,10908
2016-03-27T11:25:04.340Z,11676
2016-03-27T11:26:04.172Z,12076
2016-03-27T11:27:04.346Z,11736
2016-03-27T11:28:04.349Z,11088
2016-03-27T11:29:04.351Z,10564
2016-03-27T11:30:04.323Z,10288
2016-03-27T11:31:04.373Z,10136
2016-03-27T11:32:04.344Z,10012
2016-03-27T11:33:04.347Z,10052
2016-03-27T11:34:04.334Z,10168
2016-03-27T11:35:04.353Z,10188
2016-03-27T11:36:04.403Z,10064
2016-03-27T11:37:04.373Z,9992
2016-03-27T11:38:04.438Z,10136
2016-03-27T11:39:04.378Z,10260
2016-03-27T11:40:04.381Z,10232
2016-03-27T11:41:04.400Z,10020
2016-03-27T11:42:04.402Z,9700
2016-03-27T11:43:04.436Z,9396
2016-03-27T11:44:04.408Z,9096
2016-03-27T11:45:04.410Z,8932
2016-03-27T11:46:04.460Z,8784
2016-03-27T11:47:04.416Z,8668
2016-03-27T11:48:04.481Z,8712
2016-03-27T11:49:04.437Z,8728
2016-03-27T11:50:04.471Z,8556
2016-03-27T11:51:04.458Z,8192
2016-03-27T11:52:04.460Z,7776
2016-03-27T11:53:04.479Z,7496
2016-03-27T11:54:04.482Z,7244
2016-03-27T11:55:04.500Z,6932
2016-03-27T11:56:04.456Z,6852
2016-03-27T11:57:04.459Z,7076
2016-03-27T11:58:04.805Z,7444
2016-03-27T11:59:04.511Z,7632
2016-03-27T12:00:04.514Z,7516
2016-03-27T12:01:04.517Z,7368
2016-03-27T12:02:04.503Z,7260
2016-03-27T12:03:04.505Z,7244
2016-03-27T12:04:04.493Z,7288
2016-03-27T12:05:04.542Z,7376
2016-03-27T12:06:04.545Z,7676
2016-03-27T12:07:04.517Z,7872
2016-03-27T12:08:04.535Z,7772
2016-03-27T12:09:04.538Z,7488
2016-03-27T12:10:04.572Z,7208
2016-03-27T12:11:04.590Z,6984
2016-03-27T12:12:04.561Z,6792
2016-03-27T12:13:04.533Z,6648
2016-03-27T12:14:04.582Z,6524
2016-03-27T12:15:04.585Z,6468
2016-03-27T12:16:04.540Z,6712
2016-03-27T12:17:04.575Z,7004
2016-03-27T12:18:04.812Z,7036
2016-03-27T12:19:04.580Z,7092
2016-03-27T12:20:04.567Z,7400
2016-03-27T12:21:04.571Z,7888
2016-03-27T12:22:04.604Z,8504
2016-03-27T12:23:04.606Z,9204
2016-03-27T12:24:04.594Z,9988
2016-03-27T12:25:04.565Z,10896
2016-03-27T12:26:04.583Z,11716
2016-03-27T12:27:04.601Z,11940
2016-03-27T12:28:04.604Z,11740
2016-03-27T12:29:04.607Z,11280
2016-03-27T12:30:04.640Z,11008
2016-03-27T12:31:04.628Z,11028
2016-03-27T12:32:04.631Z,10848
2016-03-27T12:33:04.633Z,10748
2016-03-27T12:34:04.636Z,10916
2016-03-27T12:35:04.639Z,10720
2016-03-27T12:36:04.626Z,10212
2016-03-27T12:37:04.644Z,9724
2016-03-27T12:38:04.631Z,9396
2016-03-27T12:39:04.681Z,9188
2016-03-27T12:40:04.652Z,9048
2016-03-27T12:41:04.655Z,9232
2016-03-27T12:42:04.954Z,9424
2016-03-27T12:43:04.676Z,9628
2016-03-27T12:44:04.663Z,10268
2016-03-27T12:45:04.665Z,10336
2016-03-27T12:46:04.652Z,10360
2016-03-27T12:47:04.499Z,10552
2016-03-27T12:48:04.689Z,9828
2016-03-27T12:49:04.691Z,9256
2016-03-27T12:50:04.695Z,8636
2016-03-27T12:51:04.682Z,8028
2016-03-27T12:52:04.668Z,7620
2016-03-27T12:53:04.735Z,7376
2016-03-27T12:54:04.721Z,7172
2016-03-27T12:55:04.693Z,7192
2016-03-27T12:56:04.710Z,7548
2016-03-27T12:57:04.729Z,7936
2016-03-27T12:58:04.732Z,8140
2016-03-27T12:59:04.734Z,8132
2016-03-27T13:00:04.753Z,8332
2016-03-27T13:01:04.787Z,8292
2016-03-27T13:02:04.945Z,8124
2016-03-27T13:03:04.776Z,8324
2016-03-27T13:04:04.623Z,8536
2016-03-27T13:05:04.782Z,8880
2016-03-27T13:06:04.831Z,9580
2016-03-27T13:07:04.756Z,10036
2016-03-27T13:08:04.789Z,10464
2016-03-27T13:09:04.605Z,10504
2016-03-27T13:10:04.827Z,10520
2016-03-27T13:11:05.095Z,10048
2016-03-27T13:12:04.800Z,9076
2016-03-27T13:13:04.819Z,8132
2016-03-27T13:14:04.822Z,7424
2016-03-27T13:15:04.824Z,7460
2016-03-27T13:16:04.639Z,8040
2016-03-27T13:17:04.830Z,8584
2016-03-27T13:18:04.817Z,8504
2016-03-27T13:19:05.008Z,7800
2016-03-27T13:20:04.854Z,7108
2016-03-27T13:21:04.857Z,6736
2016-03-27T13:22:04.874Z,6556
2016-03-27T13:23:04.892Z,6304
2016-03-27T13:24:04.865Z,5980
2016-03-27T13:25:07.867Z,5968
2016-03-27T13:26:04.854Z,5964
2016-03-27T13:27:04.857Z,5764
2016-03-27T13:28:04.876Z,5464
2016-03-27T13:29:04.878Z,5244
2016-03-27T13:30:04.848Z,5028
2016-03-27T13:31:04.884Z,4756
2016-03-27T13:32:04.854Z,4500
2016-03-27T13:33:04.857Z,4404
2016-03-27T13:34:04.938Z,4492
2016-03-27T13:35:04.706Z,4656
2016-03-27T13:36:04.881Z,4592
2016-03-27T13:37:04.867Z,4520
2016-03-27T13:38:04.886Z,4712
2016-03-27T13:39:04.889Z,5152
2016-03-27T13:40:04.908Z,5704
2016-03-27T13:41:04.738Z,6328
2016-03-27T13:42:04.928Z,6976
2016-03-27T13:43:04.947Z,7336
2016-03-27T13:44:04.902Z,7128
2016-03-27T13:45:04.171Z,6940
2016-03-27T13:46:04.924Z,6704
2016-03-27T13:47:04.926Z,6672
2016-03-27T13:48:04.930Z,6776